createdAt,value
2022-10-14T00:00:16.719Z,96160.41
2022-10-14T00:02:43.521Z,96157.81
2022-10-14T00:05:10.421Z,96155.00
2022-10-14T00:07:37.896Z,96157.44
2022-10-14T00:10:06.238Z,96161.53
2022-10-14T00:12:34.047Z,96163.16
2022-10-14T00:15:00.911Z,96168.38
2022-10-14T00:17:27.800Z,96161.38
2022-10-14T00:19:54.595Z,96168.94
2022-10-14T00:22:21.390Z,96163.31
2022-10-14T00:24:48.126Z,96160.69
2022-10-14T00:27:15.240Z,96161.06
2022-10-14T00:29:41.969Z,96161.34
2022-10-14T00:32:08.768Z,96157.41
2022-10-14T00:34:35.994Z,96161.81
2022-10-14T00:37:04.402Z,96157.75
2022-10-14T00:39:31.147Z,96160.38
2022-10-14T00:41:57.934Z,96152.84
2022-10-14T00:44:24.566Z,96152.38
2022-10-14T00:46:51.714Z,96154.47
2022-10-14T00:49:40.901Z,96161.34
2022-10-14T00:52:22.250Z,96145.63
2022-10-14T00:55:06.229Z,96158.53
2022-10-14T00:57:33.135Z,96147.59
2022-10-14T01:00:10.227Z,96153.19
2022-10-14T01:02:37.321Z,96147.44
2022-10-14T01:05:06.910Z,96151.88
2022-10-14T01:07:36.587Z,96141.88
2022-10-14T01:10:08.336Z,96139.09
2022-10-14T01:12:59.786Z,96141.72
2022-10-14T01:15:41.658Z,96150.88
2022-10-14T01:18:17.854Z,96146.94
2022-10-14T01:20:44.558Z,96142.16
2022-10-14T01:23:39.103Z,96140.16
2022-10-14T01:26:39.909Z,96149.50
2022-10-14T01:29:18.443Z,96143.09
2022-10-14T01:31:57.219Z,96140.28
2022-10-14T01:34:31.368Z,96142.75
2022-10-14T01:37:05.145Z,96142.25
2022-10-14T01:39:38.043Z,96143.09
2022-10-14T01:42:16.518Z,96141.13
2022-10-14T01:44:49.008Z,96134.72
2022-10-14T01:47:20.914Z,96129.28
2022-10-14T01:49:53.083Z,96132.88
2022-10-14T01:52:27.566Z,96133.53
2022-10-14T01:54:57.396Z,96135.81
2022-10-14T01:57:30.615Z,96133.34
2022-10-14T01:59:59.350Z,96128.63
2022-10-14T02:02:26.317Z,96132.28
2022-10-14T02:04:53.416Z,96127.81
2022-10-14T02:07:28.076Z,96132.59
2022-10-14T02:09:54.808Z,96131.78
2022-10-14T02:12:54.285Z,96128.00
2022-10-14T02:15:53.504Z,96129.47
2022-10-14T02:18:38.896Z,96128.28
2022-10-14T02:21:17.418Z,96125.84
2022-10-14T02:23:54.092Z,96117.00
2022-10-14T02:26:24.441Z,96120.63
2022-10-14T02:28:53.423Z,96127.81
2022-10-14T02:31:21.469Z,96124.22
2022-10-14T02:33:53.643Z,96122.25
2022-10-14T02:36:23.124Z,96113.75
2022-10-14T02:38:50.604Z,96120.63
2022-10-14T02:41:21.863Z,96117.00
2022-10-14T02:43:48.826Z,96115.38
2022-10-14T02:46:15.677Z,96098.66
2022-10-14T02:48:42.461Z,96105.34
2022-10-14T02:51:09.443Z,96107.63
2022-10-14T02:53:38.169Z,96098.94
2022-10-14T02:56:05.849Z,96104.38
2022-10-14T02:58:34.200Z,96099.28
2022-10-14T03:01:01.002Z,96092.91
2022-10-14T03:03:28.661Z,96091.72
2022-10-14T03:05:55.403Z,96095.78
2022-10-14T03:08:22.514Z,96092.38
2022-10-14T03:10:49.337Z,96090.53
2022-10-14T03:13:16.662Z,96095.00
2022-10-14T03:15:49.518Z,96092.91
2022-10-14T03:18:19.357Z,96091.91
2022-10-14T03:20:48.777Z,96090.09
2022-10-14T03:23:20.860Z,96085.84
2022-10-14T03:25:50.256Z,96086.00
2022-10-14T03:28:25.295Z,96079.94
2022-10-14T03:31:00.236Z,96086.81
2022-10-14T03:33:46.809Z,96086.66
2022-10-14T03:36:17.724Z,96089.28
2022-10-14T03:38:47.335Z,96081.56
2022-10-14T03:41:37.333Z,96080.13
2022-10-14T03:44:05.962Z,96082.28
2022-10-14T03:46:34.843Z,96080.19
2022-10-14T03:49:02.342Z,96075.28
2022-10-14T03:51:29.725Z,96086.94
2022-10-14T03:54:07.423Z,96080.91
2022-10-14T03:56:35.379Z,96080.91
2022-10-14T03:59:02.859Z,96081.06
2022-10-14T04:01:29.905Z,96083.66
2022-10-14T04:04:20.067Z,96079.41
2022-10-14T04:06:47.391Z,96074.19
2022-10-14T04:09:16.864Z,96074.81
2022-10-14T04:11:43.749Z,96062.38
2022-10-14T04:14:29.247Z,96068.41
2022-10-14T04:16:56.584Z,96073.84
2022-10-14T04:19:23.352Z,96066.78
2022-10-14T04:21:50.328Z,96065.97
2022-10-14T04:24:20.761Z,96059.09
2022-10-14T04:26:53.506Z,96061.06
2022-10-14T04:29:45.098Z,96063.69
2022-10-14T04:32:17.845Z,96061.44
2022-10-14T04:34:46.776Z,96058.19
2022-10-14T04:37:17.252Z,96061.78
2022-10-14T04:40:05.431Z,96061.50
2022-10-14T04:42:38.635Z,96054.44
2022-10-14T04:45:10.982Z,96059.16
2022-10-14T04:47:50.475Z,96052.09
2022-10-14T04:50:20.561Z,96050.66
2022-10-14T04:53:10.583Z,96056.22
2022-10-14T04:55:49.622Z,96054.56
2022-10-14T04:58:17.236Z,96052.94
2022-10-14T05:00:46.958Z,96050.97
2022-10-14T05:03:26.195Z,96048.34
2022-10-14T05:05:52.993Z,96051.44
2022-10-14T05:08:20.726Z,96046.66
2022-10-14T05:10:51.408Z,96039.78
2022-10-14T05:13:33.152Z,96037.34
2022-10-14T05:16:05.388Z,96041.75
2022-10-14T05:18:33.309Z,96042.56
2022-10-14T05:21:08.035Z,96038.13
2022-10-14T05:23:53.388Z,96038.78
2022-10-14T05:26:20.611Z,96030.59
2022-10-14T05:28:51.329Z,96035.81
2022-10-14T05:31:19.558Z,96039.06
2022-10-14T05:33:55.203Z,96039.25
2022-10-14T05:36:22.091Z,96034.81
2022-10-14T05:38:50.670Z,96034.19
2022-10-14T05:41:21.519Z,96038.78
2022-10-14T05:43:48.666Z,96029.63
2022-10-14T05:46:16.567Z,96033.63
2022-10-14T05:48:48.791Z,96036.38
2022-10-14T05:51:16.686Z,96031.97
2022-10-14T05:53:43.680Z,96035.84
2022-10-14T05:56:15.756Z,96032.25
2022-10-14T05:58:42.543Z,96029.63
2022-10-14T06:01:11.374Z,96030.47
2022-10-14T06:03:40.655Z,96038.47
2022-10-14T06:06:14.720Z,96035.53
2022-10-14T06:08:42.502Z,96035.97
2022-10-14T06:11:09.454Z,96035.63
2022-10-14T06:13:36.323Z,96043.97
2022-10-14T06:16:11.086Z,96041.16
2022-10-14T06:18:38.300Z,96042.97
2022-10-14T06:21:07.586Z,96036.75
2022-10-14T06:23:34.349Z,96049.47
2022-10-14T06:26:05.262Z,96043.25
2022-10-14T06:28:32.405Z,96050.13
2022-10-14T06:30:59.170Z,96051.56
2022-10-14T06:33:28.853Z,96050.13
2022-10-14T06:35:55.916Z,96052.59
2022-10-14T06:38:23.220Z,96052.22
2022-10-14T06:40:54.510Z,96052.84
2022-10-14T06:43:22.246Z,96047.16
2022-10-14T06:45:49.420Z,96058.63
2022-10-14T06:48:16.444Z,96051.56
2022-10-14T06:50:43.237Z,96057.00
2022-10-14T06:53:10.046Z,96060.72
2022-10-14T06:55:36.805Z,96064.44
2022-10-14T06:58:03.645Z,96071.31
2022-10-14T07:00:30.445Z,96063.28
2022-10-14T07:02:59.361Z,96072.97
2022-10-14T07:05:26.873Z,96072.78
2022-10-14T07:07:53.773Z,96070.78
2022-10-14T07:10:20.873Z,96072.25
2022-10-14T07:12:47.713Z,96069.81
2022-10-14T07:15:14.803Z,96076.84
2022-10-14T07:17:41.558Z,96078.81
2022-10-14T07:20:08.783Z,96086.88
2022-10-14T07:22:38.960Z,96081.09
2022-10-14T07:25:06.763Z,96086.16
2022-10-14T07:27:33.542Z,96086.34
2022-10-14T07:30:02.876Z,96086.34
2022-10-14T07:32:29.619Z,96083.25
2022-10-14T07:34:56.695Z,96083.44
2022-10-14T07:37:23.921Z,96086.69
2022-10-14T07:39:51.013Z,96076.66
2022-10-14T07:42:17.762Z,96085.47
2022-10-14T07:44:45.941Z,96081.22
2022-10-14T07:47:13.205Z,96083.84
2022-10-14T07:49:40.024Z,96089.53
2022-10-14T07:52:06.784Z,96091.16
2022-10-14T07:54:33.630Z,96089.53
2022-10-14T07:57:00.511Z,96092.81
2022-10-14T07:59:27.305Z,96092.63
2022-10-14T08:01:56.585Z,96087.66
2022-10-14T08:04:24.203Z,96085.31
2022-10-14T08:06:51.714Z,96088.06
2022-10-14T08:09:19.559Z,96078.81
2022-10-14T08:11:46.469Z,96084.34
2022-10-14T08:14:13.482Z,96083.97
2022-10-14T08:16:40.741Z,96082.63
2022-10-14T08:19:14.196Z,96078.19
2022-10-14T08:21:43.231Z,96081.00
2022-10-14T08:24:10.704Z,96075.75
2022-10-14T08:26:50.011Z,96085.91
2022-10-14T08:29:16.864Z,96083.53
2022-10-14T08:31:43.596Z,96085.81
2022-10-14T08:34:11.320Z,96075.59
2022-10-14T08:36:38.167Z,96083.09
2022-10-14T08:39:05.892Z,96070.63
2022-10-14T08:42:09.860Z,96066.19
2022-10-14T08:44:45.317Z,96076.47
2022-10-14T08:47:20.435Z,96062.81
2022-10-14T08:49:58.708Z,96065.13
2022-10-14T08:52:43.132Z,96058.97
2022-10-14T08:55:32.969Z,96067.56
2022-10-14T08:58:19.055Z,96067.63
2022-10-14T09:00:50.090Z,96061.00
2022-10-14T09:03:21.457Z,96060.66
2022-10-14T09:06:02.301Z,96058.91
2022-10-14T09:08:38.114Z,96061.97
2022-10-14T09:11:10.212Z,96062.25
2022-10-14T09:13:40.027Z,96064.25
2022-10-14T09:16:14.709Z,96071.34
2022-10-14T09:18:54.829Z,96068.69
2022-10-14T09:21:54.720Z,96058.44
2022-10-14T09:24:27.427Z,96062.59
2022-10-14T09:26:58.608Z,96055.22
2022-10-14T09:29:27.437Z,96052.47
2022-10-14T09:31:58.471Z,96047.09
2022-10-14T09:34:46.228Z,96050.00
2022-10-14T09:37:51.576Z,96049.38
2022-10-14T09:40:24.151Z,96048.38
2022-10-14T09:43:15.041Z,96044.34
2022-10-14T09:45:47.830Z,96051.88
2022-10-14T09:48:32.414Z,96052.94
2022-10-14T09:51:02.537Z,96050.53
2022-10-14T09:53:34.348Z,96051.53
2022-10-14T09:56:03.911Z,96046.69
2022-10-14T09:58:39.745Z,96045.03
2022-10-14T10:01:12.886Z,96049.31
2022-10-14T10:03:41.234Z,96051.09
2022-10-14T10:06:13.779Z,96050.75
2022-10-14T10:08:55.315Z,96048.75
2022-10-14T10:11:39.590Z,96051.31
2022-10-14T10:14:26.284Z,96056.50
2022-10-14T10:17:08.238Z,96037.59
2022-10-14T10:19:37.623Z,96041.97
2022-10-14T10:22:31.610Z,96039.34
2022-10-14T10:25:01.192Z,96037.34
2022-10-14T10:27:37.674Z,96039.78
2022-10-14T10:30:25.205Z,96037.16
2022-10-14T10:32:57.884Z,96038.13
2022-10-14T10:35:35.230Z,96035.34
2022-10-14T10:38:20.684Z,96029.03
2022-10-14T10:41:06.441Z,96035.91
2022-10-14T10:44:06.615Z,96035.06
2022-10-14T10:47:18.358Z,96026.63
2022-10-14T10:50:18.249Z,96024.94
2022-10-14T10:52:51.817Z,96020.25
2022-10-14T10:55:39.818Z,96017.75
2022-10-14T10:58:40.624Z,96011.06
2022-10-14T11:01:26.340Z,96009.41
2022-10-14T11:04:07.251Z,96004.84
2022-10-14T11:07:11.604Z,96006.78
2022-10-14T11:10:21.822Z,96006.91
2022-10-14T11:12:57.498Z,96001.22
2022-10-14T11:15:48.297Z,96004.28
2022-10-14T11:18:45.642Z,96002.63
2022-10-14T11:21:38.805Z,95986.16
2022-10-14T11:24:08.598Z,95982.97
2022-10-14T11:26:53.554Z,95978.88
2022-10-14T11:29:23.263Z,95972.69
2022-10-14T11:32:14.336Z,95975.56
2022-10-14T11:34:41.068Z,95969.72
2022-10-14T11:37:21.879Z,95969.16
2022-10-14T11:39:55.687Z,95968.09
2022-10-14T11:42:54.621Z,95973.16
2022-10-14T11:45:37.482Z,95965.44
2022-10-14T11:48:24.451Z,95963.00
2022-10-14T11:51:07.326Z,95952.88
2022-10-14T11:53:49.160Z,95947.19
2022-10-14T11:56:34.592Z,95957.66
2022-10-14T11:59:23.193Z,95956.47
2022-10-14T12:01:58.040Z,95952.84
2022-10-14T12:04:41.411Z,95947.56
2022-10-14T12:07:35.613Z,95946.75
2022-10-14T12:10:14.522Z,95940.69
2022-10-14T12:12:43.042Z,95942.72
2022-10-14T12:15:23.235Z,95946.78
2022-10-14T12:17:57.915Z,95940.13
2022-10-14T12:20:47.868Z,95935.13
2022-10-14T12:23:30.388Z,95934.38
2022-10-14T12:26:10.968Z,95931.38
2022-10-14T12:28:38.456Z,95929.19
2022-10-14T12:31:36.730Z,95927.56
2022-10-14T12:34:13.656Z,95920.72
2022-10-14T12:36:43.373Z,95917.28
2022-10-14T12:39:19.525Z,95910.00
2022-10-14T12:42:05.633Z,95915.91
2022-10-14T12:44:48.638Z,95901.94
2022-10-14T12:47:21.007Z,95907.41
2022-10-14T12:49:54.276Z,95917.53
2022-10-14T12:52:25.814Z,95904.13
2022-10-14T12:54:53.172Z,95914.47
2022-10-14T12:57:42.291Z,95895.22
2022-10-14T13:00:36.011Z,95891.00
2022-10-14T13:03:05.416Z,95899.53
2022-10-14T13:05:43.694Z,95892.03
2022-10-14T13:08:19.674Z,95887.56
2022-10-14T13:11:09.512Z,95883.50
2022-10-14T13:13:42.584Z,95882.69
2022-10-14T13:16:11.095Z,95880.25
2022-10-14T13:18:43.747Z,95869.91
2022-10-14T13:21:25.855Z,95867.66
2022-10-14T13:23:55.274Z,95868.06
2022-10-14T13:26:28.149Z,95860.94
2022-10-14T13:29:13.071Z,95852.81
2022-10-14T13:31:58.234Z,95857.88
2022-10-14T13:34:58.798Z,95855.19
2022-10-14T13:37:45.581Z,95858.41
2022-10-14T13:40:29.025Z,95864.28
2022-10-14T13:43:01.776Z,95862.22
2022-10-14T13:45:39.653Z,95864.06
2022-10-14T13:48:17.004Z,95868.56
2022-10-14T13:50:46.937Z,95864.72
2022-10-14T13:53:20.506Z,95861.91
2022-10-14T13:55:55.091Z,95852.44
2022-10-14T13:58:23.837Z,95856.31
2022-10-14T14:00:59.387Z,95860.34
2022-10-14T14:03:29.264Z,95852.47
2022-10-14T14:05:58.317Z,95846.19
2022-10-14T14:08:40.824Z,95838.06
2022-10-14T14:11:18.194Z,95845.38
2022-10-14T14:14:08.361Z,95845.16
2022-10-14T14:16:41.597Z,95837.25
2022-10-14T14:19:20.026Z,95840.72
2022-10-14T14:21:46.834Z,95842.75
2022-10-14T14:24:22.381Z,95841.50
2022-10-14T14:26:55.496Z,95836.84
2022-10-14T14:29:28.815Z,95843.34
2022-10-14T14:32:07.037Z,95838.06
2022-10-14T14:34:38.795Z,95839.69
2022-10-14T14:40:06.452Z,95832.19
2022-10-14T14:42:37.389Z,95839.91
2022-10-14T14:45:06.391Z,95830.16
2022-10-14T14:47:33.817Z,95829.16
2022-10-14T14:50:25.285Z,95827.97
2022-10-14T14:52:49.099Z,95832.63
2022-10-14T14:55:37.733Z,95827.13
2022-10-14T14:58:14.184Z,95819.44
2022-10-14T15:00:45.952Z,95821.06
2022-10-14T15:03:13.754Z,95814.16
2022-10-14T15:05:40.638Z,95815.16
2022-10-14T15:08:23.396Z,95812.53
2022-10-14T15:10:51.266Z,95821.47
2022-10-14T15:13:42.354Z,95816.59
2022-10-14T15:16:09.409Z,95816.59
2022-10-14T15:18:37.925Z,95820.25
2022-10-14T15:21:19.354Z,95810.72
2022-10-14T15:23:49.247Z,95806.66
2022-10-14T15:26:42.268Z,95817.19
2022-10-14T15:29:09.135Z,95804.22
2022-10-14T15:31:38.026Z,95802.81
2022-10-14T15:34:05.534Z,95800.38
2022-10-14T15:36:34.448Z,95805.03
2022-10-14T15:39:02.555Z,95805.03
2022-10-14T15:41:29.595Z,95810.03
2022-10-14T15:43:56.565Z,95812.25
2022-10-14T15:46:42.016Z,95806.00
2022-10-14T15:49:20.192Z,95807.00
2022-10-14T15:51:47.261Z,95800.91
2022-10-14T15:54:17.027Z,95802.91
2022-10-14T15:56:44.269Z,95796.66
2022-10-14T15:59:11.318Z,95798.47
2022-10-14T16:01:39.997Z,95783.91
2022-10-14T16:04:31.137Z,95775.59
2022-10-14T16:06:58.187Z,95780.22
2022-10-14T16:09:27.822Z,95778.78
2022-10-14T16:11:57.577Z,95779.19
2022-10-14T16:14:25.363Z,95766.63
2022-10-14T16:16:52.126Z,95772.91
2022-10-14T16:19:18.909Z,95766.81
2022-10-14T16:21:45.723Z,95766.63
2022-10-14T16:24:20.368Z,95769.25
2022-10-14T16:26:51.484Z,95754.84
2022-10-14T16:29:19.519Z,95756.28
2022-10-14T16:31:50.858Z,95757.28
2022-10-14T16:34:26.896Z,95760.91
2022-10-14T16:36:53.706Z,95755.25
2022-10-14T16:39:20.639Z,95754.84
2022-10-14T16:41:48.605Z,95747.72
2022-10-14T16:44:26.833Z,95758.03
2022-10-14T16:47:14.202Z,95749.31
2022-10-14T16:49:41.264Z,95749.91
2022-10-14T16:52:08.706Z,95747.66
2022-10-14T16:54:37.589Z,95747.41
2022-10-14T16:57:05.035Z,95752.03
2022-10-14T16:59:33.058Z,95746.16
2022-10-14T17:02:00.670Z,95745.94
2022-10-14T17:04:27.912Z,95745.31
2022-10-14T17:06:58.380Z,95745.31
2022-10-14T17:12:01.208Z,95754.00
2022-10-14T17:14:28.054Z,95754.00
2022-10-14T17:16:54.806Z,95763.13
2022-10-14T17:19:24.002Z,95761.72
2022-10-14T17:21:50.788Z,95751.00
2022-10-14T17:24:17.767Z,95757.88
2022-10-14T17:26:45.442Z,95751.19
2022-10-14T17:29:12.245Z,95753.00
2022-10-14T17:31:39.052Z,95748.56
2022-10-14T17:34:08.871Z,95750.38
2022-10-14T17:36:35.999Z,95747.13
2022-10-14T17:39:03.569Z,95749.75
2022-10-14T17:41:31.128Z,95747.31
2022-10-14T17:44:00.086Z,95742.50
2022-10-14T17:46:29.255Z,95735.81
2022-10-14T17:48:58.891Z,95740.06
2022-10-14T17:51:27.751Z,95731.56
2022-10-14T17:53:58.267Z,95735.38
2022-10-14T17:56:26.980Z,95731.13
2022-10-14T17:58:55.582Z,95739.03
2022-10-14T18:01:36.801Z,95742.44
2022-10-14T18:04:09.797Z,95740.03
2022-10-14T18:06:37.422Z,95744.28
2022-10-14T18:09:07.818Z,95741.66
2022-10-14T18:14:29.566Z,95741.44
2022-10-14T18:16:59.640Z,95737.81
2022-10-14T18:19:29.524Z,95723.47
2022-10-14T18:21:56.812Z,95715.75
2022-10-14T18:24:28.420Z,95707.66
2022-10-14T18:26:55.890Z,95713.69
2022-10-14T18:29:23.776Z,95716.53
2022-10-14T18:34:19.524Z,95709.44
2022-10-14T18:36:48.118Z,95699.09
2022-10-14T18:39:15.786Z,95697.47
2022-10-14T18:41:44.524Z,95691.44
2022-10-14T18:44:12.141Z,95696.69
2022-10-14T18:46:40.650Z,95690.81
2022-10-14T18:49:10.720Z,95684.53
2022-10-14T18:51:39.536Z,95689.00
2022-10-14T18:54:18.619Z,95687.16
2022-10-14T18:56:46.157Z,95686.97
2022-10-14T18:59:20.886Z,95694.84
2022-10-14T19:01:53.350Z,95691.44
2022-10-14T19:04:23.474Z,95690.59
2022-10-14T19:06:50.799Z,95675.66
2022-10-14T19:09:24.565Z,95677.66
2022-10-14T19:11:52.382Z,95669.16
2022-10-14T19:14:19.178Z,95670.78
2022-10-14T19:16:47.662Z,95668.16
2022-10-14T19:19:18.322Z,95659.66
2022-10-14T19:21:46.140Z,95659.06
2022-10-14T19:24:13.704Z,95664.31
2022-10-14T19:26:43.973Z,95654.81
2022-10-14T19:29:13.100Z,95660.06
2022-10-14T19:31:41.245Z,95645.91
2022-10-14T19:34:11.627Z,95649.56
2022-10-14T19:36:39.679Z,95631.53
2022-10-14T19:39:08.852Z,95629.91
2022-10-14T19:41:42.734Z,95635.16
2022-10-14T19:44:10.557Z,95626.69
2022-10-14T19:46:39.951Z,95633.75
2022-10-14T19:49:06.861Z,95629.31
2022-10-14T19:51:34.926Z,95636.38
2022-10-14T19:54:01.804Z,95625.88
2022-10-14T19:56:29.551Z,95621.00
2022-10-14T19:58:58.330Z,95624.44
2022-10-14T20:01:27.632Z,95622.44
2022-10-14T20:03:54.598Z,95609.09
2022-10-14T20:06:22.643Z,95607.25
2022-10-14T20:08:50.046Z,95597.59
2022-10-14T20:11:19.196Z,95602.63
2022-10-14T20:13:47.202Z,95598.38
2022-10-14T20:16:14.307Z,95589.50
2022-10-14T20:18:41.735Z,95591.91
2022-10-14T20:21:10.523Z,95590.91
2022-10-14T20:23:40.814Z,95583.84
2022-10-14T20:26:11.287Z,95588.91
2022-10-14T20:28:38.830Z,95597.63
2022-10-14T20:31:07.492Z,95591.31
2022-10-14T20:33:34.294Z,95594.56
2022-10-14T20:36:03.786Z,95593.56
2022-10-14T20:38:30.973Z,95589.31
2022-10-14T20:41:15.223Z,95591.94
2022-10-14T20:43:44.018Z,95593.53
2022-10-14T20:46:11.108Z,95596.97
2022-10-14T20:48:38.180Z,95605.44
2022-10-14T20:51:09.913Z,95593.31
2022-10-14T20:53:36.891Z,95601.38
2022-10-14T20:56:11.208Z,95603.19
2022-10-14T20:58:38.381Z,95599.97
2022-10-14T21:01:13.788Z,95593.88
2022-10-14T21:03:42.422Z,95593.09
2022-10-14T21:06:12.148Z,95595.09
2022-10-14T21:08:39.290Z,95595.28
2022-10-14T21:11:13.669Z,95597.91
2022-10-14T21:13:45.537Z,95592.66
2022-10-14T21:16:19.707Z,95587.00
2022-10-14T21:18:55.145Z,95569.81
2022-10-14T21:21:26.538Z,95564.97
2022-10-14T21:23:54.003Z,95567.97
2022-10-14T21:26:20.818Z,95568.34
2022-10-14T21:28:47.672Z,95564.31
2022-10-14T21:31:17.563Z,95565.13
2022-10-14T21:33:54.045Z,95572.81
2022-10-14T21:36:20.831Z,95574.00
2022-10-14T21:38:47.618Z,95571.97
2022-10-14T21:41:14.484Z,95566.09
2022-10-14T21:43:41.801Z,95560.44
2022-10-14T21:46:14.246Z,95555.34
2022-10-14T21:48:42.517Z,95559.22
2022-10-14T21:51:12.197Z,95549.34
2022-10-14T21:53:41.415Z,95551.75
2022-10-14T21:56:09.393Z,95548.94
2022-10-14T21:58:36.815Z,95537.63
2022-10-14T22:01:15.273Z,95538.63
2022-10-14T22:03:43.506Z,95544.50
2022-10-14T22:06:15.900Z,95542.50
2022-10-14T22:08:45.534Z,95538.88
2022-10-14T22:11:27.986Z,95539.03
2022-10-14T22:13:59.936Z,95530.97
2022-10-14T22:16:29.457Z,95532.97
2022-10-14T22:19:00.077Z,95526.09
2022-10-14T22:21:28.751Z,95516.78
2022-10-14T22:23:56.332Z,95512.75
2022-10-14T22:26:25.355Z,95508.50
2022-10-14T22:29:00.476Z,95515.38
2022-10-14T22:31:30.620Z,95504.66
2022-10-14T22:34:02.335Z,95514.16
2022-10-14T22:36:40.317Z,95508.09
2022-10-14T22:39:11.657Z,95508.28
2022-10-14T22:41:39.774Z,95503.06
2022-10-14T22:44:09.702Z,95510.13
2022-10-14T22:46:40.782Z,95515.38
2022-10-14T22:49:10.383Z,95511.34
2022-10-14T22:51:43.252Z,95514.78
2022-10-14T22:54:12.760Z,95512.97
2022-10-14T22:56:40.496Z,95511.16
2022-10-14T22:59:10.241Z,95502.06
2022-10-14T23:01:38.933Z,95507.34
2022-10-14T23:04:07.654Z,95495.81
2022-10-14T23:06:38.919Z,95499.25
2022-10-14T23:09:06.588Z,95504.50
2022-10-14T23:11:34.005Z,95498.03
2022-10-14T23:14:04.417Z,95485.91
2022-10-14T23:16:35.927Z,95478.25
2022-10-14T23:19:03.629Z,95481.88
2022-10-14T23:21:34.743Z,95487.94
2022-10-14T23:24:03.619Z,95481.06
2022-10-14T23:26:33.587Z,95486.31
2022-10-14T23:29:02.629Z,95473.81
2022-10-14T23:31:32.368Z,95477.44
2022-10-14T23:34:05.128Z,95473.00
2022-10-14T23:36:32.894Z,95475.00
2022-10-14T23:39:00.241Z,95473.38
2022-10-14T23:41:30.589Z,95476.22
2022-10-14T23:43:57.537Z,95471.56
2022-10-14T23:46:24.320Z,95467.13
2022-10-14T23:49:01.215Z,95470.56
2022-10-14T23:51:35.955Z,95465.31
2022-10-14T23:54:03.428Z,95466.94
2022-10-14T23:56:33.897Z,95461.69
2022-10-14T23:59:02.174Z,95467.53
